Durant, Iowa
Current Conditions -  °F | °C
As of 5:52 AM on Monday 22 Dec 2014 (Local Time) from KDVN Reporting Station
Overcast Overcast  
Wind Chill: 27°   Ceiling: 6500
Heat Index: 36°   Visibility: 8mi
Dew Point: 30°   Wind: 14mph
Humidity: 79%   Direction: 140°SE
Pressure: 29.81"   Gusts: NA
Location:  41.6°N, 90.91°W
Report Text: KDVN 221152Z AUTO 14012KT 8SM OVC065 02/M01 A2981 RMK AO2 SLP102 60000 T00221011 10022 20017 56015
Loading
Personal Weather Stations






























Interactive Weather Map New forecast layout! Learn more

10-Day Weather Forecast

Advertisements
Track Severe Weather on mobile